sensor_id;sensor_type;location;lat;lon;timestamp;P1;durP1;ratioP1;P2;durP2;ratioP2
76417;SDS011;65250;47.602;19.002;2023-02-19T00:01:45;2.40;;;1.55;;
76417;SDS011;65250;47.602;19.002;2023-02-19T00:04:18;2.22;;;1.00;;
76417;SDS011;65250;47.602;19.002;2023-02-19T00:06:47;2.33;;;1.63;;
76417;SDS011;65250;47.602;19.002;2023-02-19T00:09:16;3.40;;;1.50;;
76417;SDS011;65250;47.602;19.002;2023-02-19T00:11:44;2.10;;;1.30;;
76417;SDS011;65250;47.602;19.002;2023-02-19T00:14:14;2.50;;;1.48;;
76417;SDS011;65250;47.602;19.002;2023-02-19T00:16:44;2.88;;;1.40;;
76417;SDS011;65250;47.602;19.002;2023-02-19T00:19:13;2.70;;;1.53;;
76417;SDS011;65250;47.602;19.002;2023-02-19T00:21:42;3.67;;;1.50;;
76417;SDS011;65250;47.602;19.002;2023-02-19T00:24:10;2.70;;;1.60;;
76417;SDS011;65250;47.602;19.002;2023-02-19T00:26:39;2.28;;;1.50;;
76417;SDS011;65250;47.602;19.002;2023-02-19T00:29:08;1.85;;;1.23;;
76417;SDS011;65250;47.602;19.002;2023-02-19T00:31:39;2.70;;;1.47;;
76417;SDS011;65250;47.602;19.002;2023-02-19T00:34:08;2.83;;;1.40;;
76417;SDS011;65250;47.602;19.002;2023-02-19T00:36:37;2.47;;;1.40;;
76417;SDS011;65250;47.602;19.002;2023-02-19T00:39:06;2.22;;;1.35;;
76417;SDS011;65250;47.602;19.002;2023-02-19T00:41:34;2.25;;;1.10;;
76417;SDS011;65250;47.602;19.002;2023-02-19T00:44:03;2.00;;;1.33;;
76417;SDS011;65250;47.602;19.002;2023-02-19T00:46:39;2.08;;;1.00;;
76417;SDS011;65250;47.602;19.002;2023-02-19T00:49:12;2.03;;;1.10;;
76417;SDS011;65250;47.602;19.002;2023-02-19T00:51:42;1.90;;;1.25;;
76417;SDS011;65250;47.602;19.002;2023-02-19T00:54:10;1.85;;;1.08;;
76417;SDS011;65250;47.602;19.002;2023-02-19T00:56:39;1.80;;;1.03;;
76417;SDS011;65250;47.602;19.002;2023-02-19T00:59:06;1.50;;;1.10;;
76417;SDS011;65250;47.602;19.002;2023-02-19T01:01:34;1.63;;;0.82;;
76417;SDS011;65250;47.602;19.002;2023-02-19T01:04:01;1.65;;;0.80;;
76417;SDS011;65250;47.602;19.002;2023-02-19T01:06:32;1.27;;;0.80;;
76417;SDS011;65250;47.602;19.002;2023-02-19T01:09:00;1.47;;;0.80;;
76417;SDS011;65250;47.602;19.002;2023-02-19T01:11:28;1.63;;;0.90;;
76417;SDS011;65250;47.602;19.002;2023-02-19T01:13:57;1.45;;;0.70;;
76417;SDS011;65250;47.602;19.002;2023-02-19T01:16:26;3.03;;;1.20;;
76417;SDS011;65250;47.602;19.002;2023-02-19T01:18:54;1.27;;;0.85;;
76417;SDS011;65250;47.602;19.002;2023-02-19T01:21:23;2.80;;;0.83;;
76417;SDS011;65250;47.602;19.002;2023-02-19T01:23:52;2.03;;;0.80;;
76417;SDS011;65250;47.602;19.002;2023-02-19T01:26:21;0.85;;;0.82;;
76417;SDS011;65250;47.602;19.002;2023-02-19T01:28:51;1.73;;;0.90;;
76417;SDS011;65250;47.602;19.002;2023-02-19T01:31:20;1.60;;;0.77;;
76417;SDS011;65250;47.602;19.002;2023-02-19T01:33:51;1.63;;;1.13;;
76417;SDS011;65250;47.602;19.002;2023-02-19T01:36:20;1.65;;;0.85;;
76417;SDS011;65250;47.602;19.002;2023-02-19T01:38:48;1.58;;;0.75;;
76417;SDS011;65250;47.602;19.002;2023-02-19T01:41:17;1.17;;;0.70;;
76417;SDS011;65250;47.602;19.002;2023-02-19T01:43:54;1.23;;;0.60;;
76417;SDS011;65250;47.602;19.002;2023-02-19T01:46:36;1.10;;;0.80;;
76417;SDS011;65250;47.602;19.002;2023-02-19T01:49:07;1.75;;;0.90;;
76417;SDS011;65250;47.602;19.002;2023-02-19T01:51:37;1.00;;;0.60;;
76417;SDS011;65250;47.602;19.002;2023-02-19T01:54:08;0.95;;;0.70;;
76417;SDS011;65250;47.602;19.002;2023-02-19T01:56:36;0.90;;;0.60;;
76417;SDS011;65250;47.602;19.002;2023-02-19T01:59:06;1.10;;;0.70;;
76417;SDS011;65250;47.602;19.002;2023-02-19T02:01:34;1.23;;;0.60;;
76417;SDS011;65250;47.602;19.002;2023-02-19T02:04:04;1.52;;;0.70;;
76417;SDS011;65250;47.602;19.002;2023-02-19T02:06:37;2.05;;;1.17;;
76417;SDS011;65250;47.602;19.002;2023-02-19T02:09:07;2.42;;;0.90;;
76417;SDS011;65250;47.602;19.002;2023-02-19T02:11:54;2.10;;;0.97;;
76417;SDS011;65250;47.602;19.002;2023-02-19T02:14:23;2.63;;;0.90;;
76417;SDS011;65250;47.602;19.002;2023-02-19T02:31:01;1.35;;;0.93;;
76417;SDS011;65250;47.602;19.002;2023-02-19T02:33:35;5.00;;;0.82;;
76417;SDS011;65250;47.602;19.002;2023-02-19T02:36:16;2.22;;;0.80;;
76417;SDS011;65250;47.602;19.002;2023-02-19T02:38:46;1.77;;;0.77;;
76417;SDS011;65250;47.602;19.002;2023-02-19T02:41:14;2.15;;;0.80;;
76417;SDS011;65250;47.602;19.002;2023-02-19T02:43:42;1.00;;;0.50;;
76417;SDS011;65250;47.602;19.002;2023-02-19T02:46:10;1.00;;;0.70;;
76417;SDS011;65250;47.602;19.002;2023-02-19T02:51:22;1.30;;;0.70;;
76417;SDS011;65250;47.602;19.002;2023-02-19T02:56:42;1.00;;;0.80;;
76417;SDS011;65250;47.602;19.002;2023-02-19T02:59:11;1.75;;;0.73;;
76417;SDS011;65250;47.602;19.002;2023-02-19T03:06:57;1.55;;;0.80;;
76417;SDS011;65250;47.602;19.002;2023-02-19T03:09:31;1.40;;;0.80;;
76417;SDS011;65250;47.602;19.002;2023-02-19T03:12:08;1.13;;;0.50;;
76417;SDS011;65250;47.602;19.002;2023-02-19T03:14:58;1.27;;;0.60;;
76417;SDS011;65250;47.602;19.002;2023-02-19T03:17:51;0.87;;;0.60;;
76417;SDS011;65250;47.602;19.002;2023-02-19T03:20:42;0.98;;;0.73;;
76417;SDS011;65250;47.602;19.002;2023-02-19T03:23:11;2.08;;;0.70;;
76417;SDS011;65250;47.602;19.002;2023-02-19T03:25:40;6.25;;;1.48;;
76417;SDS011;65250;47.602;19.002;2023-02-19T03:28:27;1.70;;;1.00;;
76417;SDS011;65250;47.602;19.002;2023-02-19T03:31:15;1.63;;;0.90;;
76417;SDS011;65250;47.602;19.002;2023-02-19T03:33:46;2.33;;;1.25;;
76417;SDS011;65250;47.602;19.002;2023-02-19T03:36:18;2.00;;;1.00;;
76417;SDS011;65250;47.602;19.002;2023-02-19T03:38:53;1.67;;;0.88;;
76417;SDS011;65250;47.602;19.002;2023-02-19T03:46:46;2.08;;;0.93;;
76417;SDS011;65250;47.602;19.002;2023-02-19T03:49:53;1.52;;;0.73;;
76417;SDS011;65250;47.602;19.002;2023-02-19T03:57:50;2.03;;;0.60;;
76417;SDS011;65250;47.602;19.002;2023-02-19T04:00:22;1.13;;;0.52;;
76417;SDS011;65250;47.602;19.002;2023-02-19T04:03:19;0.95;;;0.70;;
76417;SDS011;65250;47.602;19.002;2023-02-19T04:05:51;1.02;;;0.50;;
76417;SDS011;65250;47.602;19.002;2023-02-19T04:08:21;1.38;;;0.70;;
76417;SDS011;65250;47.602;19.002;2023-02-19T04:10:50;1.33;;;0.57;;
76417;SDS011;65250;47.602;19.002;2023-02-19T04:13:21;1.25;;;0.50;;
76417;SDS011;65250;47.602;19.002;2023-02-19T04:15:53;0.80;;;0.60;;
76417;SDS011;65250;47.602;19.002;2023-02-19T04:18:22;1.35;;;0.50;;
76417;SDS011;65250;47.602;19.002;2023-02-19T04:20:53;0.90;;;0.60;;
76417;SDS011;65250;47.602;19.002;2023-02-19T04:23:22;1.37;;;0.67;;
76417;SDS011;65250;47.602;19.002;2023-02-19T04:25:52;1.00;;;0.50;;
76417;SDS011;65250;47.602;19.002;2023-02-19T04:28:22;0.95;;;0.70;;
76417;SDS011;65250;47.602;19.002;2023-02-19T04:30:50;1.17;;;0.68;;
76417;SDS011;65250;47.602;19.002;2023-02-19T04:33:18;1.42;;;0.75;;
76417;SDS011;65250;47.602;19.002;2023-02-19T04:35:45;1.57;;;0.90;;
76417;SDS011;65250;47.602;19.002;2023-02-19T04:38:13;1.23;;;0.60;;
76417;SDS011;65250;47.602;19.002;2023-02-19T04:40:41;0.82;;;0.75;;
76417;SDS011;65250;47.602;19.002;2023-02-19T04:43:09;2.15;;;0.70;;
76417;SDS011;65250;47.602;19.002;2023-02-19T04:45:36;1.23;;;0.80;;
76417;SDS011;65250;47.602;19.002;2023-02-19T04:48:05;1.13;;;0.70;;
76417;SDS011;65250;47.602;19.002;2023-02-19T04:50:32;1.35;;;0.80;;
76417;SDS011;65250;47.602;19.002;2023-02-19T04:52:59;3.10;;;0.60;;
76417;SDS011;65250;47.602;19.002;2023-02-19T04:55:27;1.63;;;0.80;;
76417;SDS011;65250;47.602;19.002;2023-02-19T04:57:54;2.00;;;0.70;;
76417;SDS011;65250;47.602;19.002;2023-02-19T05:00:22;1.50;;;0.70;;
76417;SDS011;65250;47.602;19.002;2023-02-19T05:02:50;1.80;;;0.60;;
76417;SDS011;65250;47.602;19.002;2023-02-19T05:05:17;1.48;;;0.70;;
76417;SDS011;65250;47.602;19.002;2023-02-19T05:07:45;1.55;;;0.80;;
76417;SDS011;65250;47.602;19.002;2023-02-19T05:10:13;1.40;;;0.70;;
76417;SDS011;65250;47.602;19.002;2023-02-19T05:12:41;1.77;;;0.90;;
76417;SDS011;65250;47.602;19.002;2023-02-19T05:15:08;1.40;;;0.98;;
76417;SDS011;65250;47.602;19.002;2023-02-19T05:17:36;1.95;;;0.80;;
76417;SDS011;65250;47.602;19.002;2023-02-19T05:20:03;1.30;;;0.70;;
76417;SDS011;65250;47.602;19.002;2023-02-19T05:22:31;1.33;;;1.00;;
76417;SDS011;65250;47.602;19.002;2023-02-19T05:24:58;2.47;;;1.70;;
76417;SDS011;65250;47.602;19.002;2023-02-19T05:27:25;2.30;;;2.00;;
76417;SDS011;65250;47.602;19.002;2023-02-19T05:29:53;2.42;;;1.92;;
76417;SDS011;65250;47.602;19.002;2023-02-19T05:32:21;5.25;;;2.53;;
76417;SDS011;65250;47.602;19.002;2023-02-19T05:34:49;4.65;;;3.28;;
76417;SDS011;65250;47.602;19.002;2023-02-19T05:37:17;6.20;;;2.77;;
76417;SDS011;65250;47.602;19.002;2023-02-19T05:39:45;5.30;;;2.63;;
76417;SDS011;65250;47.602;19.002;2023-02-19T05:42:13;4.32;;;2.17;;
76417;SDS011;65250;47.602;19.002;2023-02-19T05:44:41;3.42;;;2.10;;
76417;SDS011;65250;47.602;19.002;2023-02-19T05:47:09;3.47;;;2.30;;
76417;SDS011;65250;47.602;19.002;2023-02-19T05:49:37;4.23;;;2.83;;
76417;SDS011;65250;47.602;19.002;2023-02-19T05:52:04;4.28;;;2.50;;
76417;SDS011;65250;47.602;19.002;2023-02-19T05:54:31;3.72;;;2.40;;
76417;SDS011;65250;47.602;19.002;2023-02-19T05:56:59;4.07;;;2.03;;
76417;SDS011;65250;47.602;19.002;2023-02-19T05:59:26;3.92;;;1.60;;
76417;SDS011;65250;47.602;19.002;2023-02-19T06:01:54;2.87;;;2.13;;
76417;SDS011;65250;47.602;19.002;2023-02-19T06:04:22;2.05;;;1.30;;
76417;SDS011;65250;47.602;19.002;2023-02-19T06:06:50;2.38;;;1.88;;
76417;SDS011;65250;47.602;19.002;2023-02-19T06:09:18;3.22;;;2.33;;
76417;SDS011;65250;47.602;19.002;2023-02-19T06:11:46;1.83;;;1.30;;
76417;SDS011;65250;47.602;19.002;2023-02-19T06:14:13;2.10;;;1.50;;
76417;SDS011;65250;47.602;19.002;2023-02-19T06:16:41;2.22;;;1.00;;
76417;SDS011;65250;47.602;19.002;2023-02-19T06:19:09;1.95;;;1.05;;
76417;SDS011;65250;47.602;19.002;2023-02-19T06:21:37;1.92;;;1.05;;
76417;SDS011;65250;47.602;19.002;2023-02-19T06:24:05;1.38;;;1.00;;
76417;SDS011;65250;47.602;19.002;2023-02-19T06:26:36;2.07;;;1.30;;
76417;SDS011;65250;47.602;19.002;2023-02-19T06:29:04;1.88;;;1.20;;
76417;SDS011;65250;47.602;19.002;2023-02-19T06:31:32;2.13;;;1.00;;
76417;SDS011;65250;47.602;19.002;2023-02-19T06:34:02;1.92;;;1.10;;
76417;SDS011;65250;47.602;19.002;2023-02-19T06:36:30;3.17;;;1.60;;
76417;SDS011;65250;47.602;19.002;2023-02-19T06:39:01;4.90;;;2.60;;
76417;SDS011;65250;47.602;19.002;2023-02-19T06:41:30;3.80;;;1.90;;
76417;SDS011;65250;47.602;19.002;2023-02-19T06:43:58;1.77;;;1.10;;
76417;SDS011;65250;47.602;19.002;2023-02-19T06:46:25;1.58;;;1.25;;
76417;SDS011;65250;47.602;19.002;2023-02-19T06:48:53;1.23;;;0.82;;
76417;SDS011;65250;47.602;19.002;2023-02-19T06:51:20;2.13;;;1.20;;
76417;SDS011;65250;47.602;19.002;2023-02-19T06:53:50;3.30;;;1.25;;
76417;SDS011;65250;47.602;19.002;2023-02-19T06:56:30;2.30;;;1.25;;
76417;SDS011;65250;47.602;19.002;2023-02-19T06:59:00;3.25;;;1.20;;
76417;SDS011;65250;47.602;19.002;2023-02-19T07:01:29;2.20;;;1.30;;
76417;SDS011;65250;47.602;19.002;2023-02-19T07:03:58;1.27;;;0.77;;
76417;SDS011;65250;47.602;19.002;2023-02-19T07:06:26;1.60;;;1.13;;
76417;SDS011;65250;47.602;19.002;2023-02-19T07:08:54;1.77;;;1.20;;
76417;SDS011;65250;47.602;19.002;2023-02-19T07:11:22;1.40;;;1.13;;
76417;SDS011;65250;47.602;19.002;2023-02-19T07:13:57;1.67;;;0.80;;
76417;SDS011;65250;47.602;19.002;2023-02-19T07:16:26;1.50;;;1.03;;
76417;SDS011;65250;47.602;19.002;2023-02-19T07:18:57;1.67;;;1.17;;
76417;SDS011;65250;47.602;19.002;2023-02-19T07:21:26;2.92;;;1.48;;
76417;SDS011;65250;47.602;19.002;2023-02-19T07:23:54;2.55;;;1.48;;
76417;SDS011;65250;47.602;19.002;2023-02-19T07:26:21;2.72;;;1.55;;
76417;SDS011;65250;47.602;19.002;2023-02-19T07:28:49;1.50;;;1.20;;
76417;SDS011;65250;47.602;19.002;2023-02-19T07:31:19;1.85;;;1.20;;
76417;SDS011;65250;47.602;19.002;2023-02-19T07:33:48;2.40;;;0.90;;
76417;SDS011;65250;47.602;19.002;2023-02-19T07:36:16;2.88;;;1.17;;
76417;SDS011;65250;47.602;19.002;2023-02-19T07:38:45;1.85;;;0.95;;
76417;SDS011;65250;47.602;19.002;2023-02-19T07:41:12;2.80;;;1.20;;
76417;SDS011;65250;47.602;19.002;2023-02-19T07:43:40;2.85;;;1.05;;
76417;SDS011;65250;47.602;19.002;2023-02-19T07:46:09;1.90;;;1.10;;
76417;SDS011;65250;47.602;19.002;2023-02-19T07:48:38;1.65;;;0.90;;
76417;SDS011;65250;47.602;19.002;2023-02-19T07:51:07;1.10;;;0.90;;
76417;SDS011;65250;47.602;19.002;2023-02-19T07:53:37;1.70;;;0.60;;
76417;SDS011;65250;47.602;19.002;2023-02-19T07:56:05;1.70;;;0.60;;
76417;SDS011;65250;47.602;19.002;2023-02-19T07:58:33;1.20;;;0.80;;
76417;SDS011;65250;47.602;19.002;2023-02-19T08:01:15;1.27;;;0.57;;
76417;SDS011;65250;47.602;19.002;2023-02-19T08:03:44;1.15;;;0.55;;
76417;SDS011;65250;47.602;19.002;2023-02-19T08:06:14;1.00;;;0.50;;
76417;SDS011;65250;47.602;19.002;2023-02-19T08:08:42;0.73;;;0.40;;
76417;SDS011;65250;47.602;19.002;2023-02-19T08:11:09;3.00;;;0.50;;
76417;SDS011;65250;47.602;19.002;2023-02-19T08:13:56;1.23;;;0.70;;
76417;SDS011;65250;47.602;19.002;2023-02-19T08:16:23;1.05;;;0.50;;
76417;SDS011;65250;47.602;19.002;2023-02-19T08:19:08;1.50;;;0.50;;
76417;SDS011;65250;47.602;19.002;2023-02-19T08:21:35;1.77;;;0.85;;
76417;SDS011;65250;47.602;19.002;2023-02-19T08:24:03;0.85;;;0.60;;
76417;SDS011;65250;47.602;19.002;2023-02-19T08:26:31;1.52;;;0.60;;
76417;SDS011;65250;47.602;19.002;2023-02-19T08:28:59;1.55;;;0.50;;
76417;SDS011;65250;47.602;19.002;2023-02-19T08:31:27;0.57;;;0.40;;
76417;SDS011;65250;47.602;19.002;2023-02-19T08:33:54;0.70;;;0.35;;
76417;SDS011;65250;47.602;19.002;2023-02-19T08:36:22;1.80;;;0.60;;
76417;SDS011;65250;47.602;19.002;2023-02-19T08:38:50;2.33;;;0.80;;
76417;SDS011;65250;47.602;19.002;2023-02-19T08:41:17;1.65;;;0.73;;
76417;SDS011;65250;47.602;19.002;2023-02-19T08:43:45;3.50;;;1.00;;
76417;SDS011;65250;47.602;19.002;2023-02-19T08:46:12;1.48;;;0.65;;
76417;SDS011;65250;47.602;19.002;2023-02-19T08:48:40;1.13;;;0.80;;
76417;SDS011;65250;47.602;19.002;2023-02-19T08:51:09;1.02;;;0.90;;
76417;SDS011;65250;47.602;19.002;2023-02-19T08:53:39;1.70;;;0.82;;
76417;SDS011;65250;47.602;19.002;2023-02-19T08:56:08;1.37;;;0.90;;
76417;SDS011;65250;47.602;19.002;2023-02-19T08:58:39;1.58;;;0.98;;
76417;SDS011;65250;47.602;19.002;2023-02-19T09:01:08;2.38;;;1.50;;
76417;SDS011;65250;47.602;19.002;2023-02-19T09:03:37;2.50;;;1.40;;
76417;SDS011;65250;47.602;19.002;2023-02-19T09:06:05;2.78;;;1.70;;
76417;SDS011;65250;47.602;19.002;2023-02-19T09:08:33;2.37;;;1.60;;
76417;SDS011;65250;47.602;19.002;2023-02-19T09:11:01;3.63;;;2.10;;
76417;SDS011;65250;47.602;19.002;2023-02-19T09:13:30;3.15;;;2.10;;
76417;SDS011;65250;47.602;19.002;2023-02-19T09:15:58;4.53;;;3.00;;
76417;SDS011;65250;47.602;19.002;2023-02-19T09:18:25;3.90;;;2.42;;
76417;SDS011;65250;47.602;19.002;2023-02-19T09:20:53;4.93;;;3.27;;
76417;SDS011;65250;47.602;19.002;2023-02-19T09:23:20;4.30;;;3.00;;
76417;SDS011;65250;47.602;19.002;2023-02-19T09:25:48;5.90;;;3.33;;
76417;SDS011;65250;47.602;19.002;2023-02-19T09:28:23;5.22;;;3.63;;
76417;SDS011;65250;47.602;19.002;2023-02-19T09:30:50;6.75;;;4.20;;
76417;SDS011;65250;47.602;19.002;2023-02-19T09:33:18;6.67;;;4.17;;
76417;SDS011;65250;47.602;19.002;2023-02-19T09:35:45;7.15;;;3.90;;
76417;SDS011;65250;47.602;19.002;2023-02-19T09:38:13;5.88;;;4.18;;
76417;SDS011;65250;47.602;19.002;2023-02-19T09:40:40;5.95;;;4.00;;
76417;SDS011;65250;47.602;19.002;2023-02-19T09:43:08;7.13;;;3.83;;
76417;SDS011;65250;47.602;19.002;2023-02-19T09:45:41;7.57;;;4.47;;
76417;SDS011;65250;47.602;19.002;2023-02-19T09:48:09;6.57;;;4.22;;
76417;SDS011;65250;47.602;19.002;2023-02-19T09:50:40;6.78;;;4.28;;
76417;SDS011;65250;47.602;19.002;2023-02-19T09:53:20;7.40;;;3.95;;
76417;SDS011;65250;47.602;19.002;2023-02-19T09:55:50;6.63;;;4.50;;
76417;SDS011;65250;47.602;19.002;2023-02-19T09:58:23;6.77;;;4.33;;
76417;SDS011;65250;47.602;19.002;2023-02-19T10:00:54;8.63;;;4.30;;
76417;SDS011;65250;47.602;19.002;2023-02-19T10:03:24;10.05;;;5.13;;
76417;SDS011;65250;47.602;19.002;2023-02-19T10:05:58;7.53;;;4.72;;
76417;SDS011;65250;47.602;19.002;2023-02-19T10:08:29;7.22;;;4.45;;
76417;SDS011;65250;47.602;19.002;2023-02-19T10:10:59;6.80;;;4.50;;
76417;SDS011;65250;47.602;19.002;2023-02-19T10:16:00;6.05;;;3.50;;
76417;SDS011;65250;47.602;19.002;2023-02-19T10:18:37;6.47;;;4.18;;
76417;SDS011;65250;47.602;19.002;2023-02-19T10:21:07;5.20;;;3.70;;
76417;SDS011;65250;47.602;19.002;2023-02-19T10:23:38;6.30;;;3.97;;
76417;SDS011;65250;47.602;19.002;2023-02-19T10:26:06;7.28;;;4.40;;
76417;SDS011;65250;47.602;19.002;2023-02-19T10:28:34;7.03;;;3.13;;
76417;SDS011;65250;47.602;19.002;2023-02-19T10:31:04;7.00;;;3.67;;
76417;SDS011;65250;47.602;19.002;2023-02-19T10:33:47;5.35;;;3.33;;
76417;SDS011;65250;47.602;19.002;2023-02-19T10:36:21;5.73;;;3.30;;
76417;SDS011;65250;47.602;19.002;2023-02-19T10:38:51;4.78;;;3.20;;
76417;SDS011;65250;47.602;19.002;2023-02-19T10:41:20;4.80;;;3.50;;
76417;SDS011;65250;47.602;19.002;2023-02-19T10:46:56;5.50;;;3.30;;
76417;SDS011;65250;47.602;19.002;2023-02-19T10:49:29;3.83;;;2.90;;
76417;SDS011;65250;47.602;19.002;2023-02-19T10:51:59;3.45;;;2.30;;
76417;SDS011;65250;47.602;19.002;2023-02-19T10:54:32;4.00;;;2.75;;
76417;SDS011;65250;47.602;19.002;2023-02-19T10:59:48;2.95;;;2.33;;
76417;SDS011;65250;47.602;19.002;2023-02-19T11:02:20;3.57;;;2.60;;
76417;SDS011;65250;47.602;19.002;2023-02-19T11:07:56;4.22;;;2.95;;
76417;SDS011;65250;47.602;19.002;2023-02-19T11:12:55;5.88;;;3.67;;
76417;SDS011;65250;47.602;19.002;2023-02-19T11:15:28;4.20;;;3.23;;
76417;SDS011;65250;47.602;19.002;2023-02-19T11:18:14;4.90;;;3.50;;
76417;SDS011;65250;47.602;19.002;2023-02-19T11:20:52;4.18;;;3.05;;
76417;SDS011;65250;47.602;19.002;2023-02-19T11:23:31;3.50;;;2.85;;
76417;SDS011;65250;47.602;19.002;2023-02-19T11:26:00;4.05;;;3.05;;
76417;SDS011;65250;47.602;19.002;2023-02-19T11:28:36;2.80;;;2.47;;
76417;SDS011;65250;47.602;19.002;2023-02-19T11:33:53;3.80;;;2.90;;
76417;SDS011;65250;47.602;19.002;2023-02-19T11:38:56;2.85;;;2.55;;
76417;SDS011;65250;47.602;19.002;2023-02-19T11:41:29;6.57;;;2.83;;
76417;SDS011;65250;47.602;19.002;2023-02-19T11:52:42;2.83;;;2.53;;
76417;SDS011;65250;47.602;19.002;2023-02-19T11:55:54;2.10;;;2.00;;
76417;SDS011;65250;47.602;19.002;2023-02-19T12:16:12;2.42;;;2.13;;
76417;SDS011;65250;47.602;19.002;2023-02-19T12:38:42;3.83;;;1.77;;
76417;SDS011;65250;47.602;19.002;2023-02-19T12:41:17;4.63;;;2.05;;
76417;SDS011;65250;47.602;19.002;2023-02-19T12:46:51;3.30;;;1.80;;
76417;SDS011;65250;47.602;19.002;2023-02-19T12:51:54;8.20;;;2.83;;
76417;SDS011;65250;47.602;19.002;2023-02-19T12:54:31;3.85;;;1.85;;
76417;SDS011;65250;47.602;19.002;2023-02-19T12:57:11;2.22;;;1.40;;
76417;SDS011;65250;47.602;19.002;2023-02-19T12:59:58;1.90;;;1.80;;
76417;SDS011;65250;47.602;19.002;2023-02-19T13:05:12;1.10;;;1.00;;
76417;SDS011;65250;47.602;19.002;2023-02-19T13:07:54;1.52;;;1.15;;
76417;SDS011;65250;47.602;19.002;2023-02-19T13:10:27;1.75;;;1.33;;
76417;SDS011;65250;47.602;19.002;2023-02-19T13:13:03;1.77;;;1.15;;
76417;SDS011;65250;47.602;19.002;2023-02-19T13:15:34;6.55;;;2.13;;
76417;SDS011;65250;47.602;19.002;2023-02-19T13:18:06;2.40;;;1.60;;
76417;SDS011;65250;47.602;19.002;2023-02-19T13:20:40;2.17;;;1.58;;
76417;SDS011;65250;47.602;19.002;2023-02-19T13:23:14;3.20;;;1.42;;
76417;SDS011;65250;47.602;19.002;2023-02-19T13:34:50;2.00;;;1.02;;
76417;SDS011;65250;47.602;19.002;2023-02-19T13:37:22;1.85;;;0.90;;
76417;SDS011;65250;47.602;19.002;2023-02-19T13:39:51;0.95;;;0.77;;
76417;SDS011;65250;47.602;19.002;2023-02-19T13:45:04;2.13;;;0.77;;
76417;SDS011;65250;47.602;19.002;2023-02-19T13:50:22;2.78;;;0.90;;
76417;SDS011;65250;47.602;19.002;2023-02-19T13:52:51;1.15;;;0.70;;
76417;SDS011;65250;47.602;19.002;2023-02-19T14:01:08;1.80;;;0.80;;
76417;SDS011;65250;47.602;19.002;2023-02-19T14:06:17;1.40;;;0.90;;
76417;SDS011;65250;47.602;19.002;2023-02-19T14:14:27;0.93;;;0.60;;
76417;SDS011;65250;47.602;19.002;2023-02-19T14:17:23;1.05;;;0.60;;
76417;SDS011;65250;47.602;19.002;2023-02-19T14:33:28;0.20;;;0.10;;
76417;SDS011;65250;47.602;19.002;2023-02-19T14:36:05;0.20;;;0.10;;
76417;SDS011;65250;47.602;19.002;2023-02-19T14:38:47;0.80;;;0.20;;
76417;SDS011;65250;47.602;19.002;2023-02-19T14:41:17;0.75;;;0.40;;
76417;SDS011;65250;47.602;19.002;2023-02-19T14:43:45;1.00;;;0.20;;
76417;SDS011;65250;47.602;19.002;2023-02-19T14:46:19;2.03;;;0.38;;
76417;SDS011;65250;47.602;19.002;2023-02-19T14:48:52;0.93;;;0.35;;
76417;SDS011;65250;47.602;19.002;2023-02-19T14:53:50;0.60;;;0.30;;
76417;SDS011;65250;47.602;19.002;2023-02-19T14:56:20;0.40;;;0.30;;
76417;SDS011;65250;47.602;19.002;2023-02-19T14:59:20;0.90;;;0.50;;
76417;SDS011;65250;47.602;19.002;2023-02-19T15:01:54;0.70;;;0.35;;
76417;SDS011;65250;47.602;19.002;2023-02-19T15:04:24;0.63;;;0.40;;
76417;SDS011;65250;47.602;19.002;2023-02-19T15:06:54;0.77;;;0.30;;
76417;SDS011;65250;47.602;19.002;2023-02-19T15:09:24;0.82;;;0.30;;
76417;SDS011;65250;47.602;19.002;2023-02-19T15:11:57;0.50;;;0.30;;
76417;SDS011;65250;47.602;19.002;2023-02-19T15:14:25;0.73;;;0.50;;
76417;SDS011;65250;47.602;19.002;2023-02-19T15:16:57;1.53;;;0.63;;
76417;SDS011;65250;47.602;19.002;2023-02-19T15:19:28;1.52;;;0.50;;
76417;SDS011;65250;47.602;19.002;2023-02-19T15:21:59;0.90;;;0.50;;
76417;SDS011;65250;47.602;19.002;2023-02-19T15:24:28;0.63;;;0.38;;
76417;SDS011;65250;47.602;19.002;2023-02-19T15:26:55;0.82;;;0.20;;
76417;SDS011;65250;47.602;19.002;2023-02-19T15:29:24;0.70;;;0.40;;
76417;SDS011;65250;47.602;19.002;2023-02-19T15:31:57;0.85;;;0.50;;
76417;SDS011;65250;47.602;19.002;2023-02-19T15:34:27;0.80;;;0.40;;
76417;SDS011;65250;47.602;19.002;2023-02-19T15:37:05;0.70;;;0.43;;
76417;SDS011;65250;47.602;19.002;2023-02-19T15:39:42;2.90;;;0.65;;
76417;SDS011;65250;47.602;19.002;2023-02-19T15:42:23;1.30;;;0.40;;
76417;SDS011;65250;47.602;19.002;2023-02-19T15:47:49;1.23;;;0.45;;
76417;SDS011;65250;47.602;19.002;2023-02-19T15:50:32;0.50;;;0.20;;
76417;SDS011;65250;47.602;19.002;2023-02-19T15:55:40;1.10;;;0.40;;
76417;SDS011;65250;47.602;19.002;2023-02-19T16:00:45;0.77;;;0.22;;
76417;SDS011;65250;47.602;19.002;2023-02-19T16:03:17;1.25;;;0.25;;
76417;SDS011;65250;47.602;19.002;2023-02-19T16:08:37;0.63;;;0.20;;
76417;SDS011;65250;47.602;19.002;2023-02-19T16:11:25;1.25;;;0.70;;
76417;SDS011;65250;47.602;19.002;2023-02-19T16:22:10;1.07;;;0.20;;
76417;SDS011;65250;47.602;19.002;2023-02-19T16:24:43;0.77;;;0.30;;
76417;SDS011;65250;47.602;19.002;2023-02-19T16:27:12;1.02;;;0.13;;
76417;SDS011;65250;47.602;19.002;2023-02-19T16:29:40;0.45;;;0.20;;
76417;SDS011;65250;47.602;19.002;2023-02-19T16:32:14;0.30;;;0.10;;
76417;SDS011;65250;47.602;19.002;2023-02-19T16:34:44;1.60;;;0.00;;
76417;SDS011;65250;47.602;19.002;2023-02-19T16:37:32;0.60;;;0.10;;
76417;SDS011;65250;47.602;19.002;2023-02-19T16:43:06;1.45;;;0.32;;
76417;SDS011;65250;47.602;19.002;2023-02-19T16:45:49;1.88;;;0.47;;
76417;SDS011;65250;47.602;19.002;2023-02-19T16:48:17;1.43;;;0.50;;
76417;SDS011;65250;47.602;19.002;2023-02-19T16:50:45;2.45;;;0.80;;
76417;SDS011;65250;47.602;19.002;2023-02-19T16:53:17;2.03;;;0.85;;
76417;SDS011;65250;47.602;19.002;2023-02-19T16:55:50;1.98;;;0.70;;
76417;SDS011;65250;47.602;19.002;2023-02-19T16:58:18;1.60;;;0.90;;
76417;SDS011;65250;47.602;19.002;2023-02-19T17:00:47;2.03;;;0.43;;
76417;SDS011;65250;47.602;19.002;2023-02-19T17:03:19;1.30;;;0.25;;
76417;SDS011;65250;47.602;19.002;2023-02-19T17:05:48;0.60;;;0.20;;
76417;SDS011;65250;47.602;19.002;2023-02-19T17:11:10;1.50;;;0.40;;
76417;SDS011;65250;47.602;19.002;2023-02-19T17:13:40;1.20;;;0.40;;
76417;SDS011;65250;47.602;19.002;2023-02-19T17:16:18;1.95;;;0.73;;
76417;SDS011;65250;47.602;19.002;2023-02-19T17:18:47;1.33;;;0.45;;
76417;SDS011;65250;47.602;19.002;2023-02-19T17:21:26;1.23;;;0.20;;
76417;SDS011;65250;47.602;19.002;2023-02-19T17:23:55;1.05;;;0.50;;
76417;SDS011;65250;47.602;19.002;2023-02-19T17:26:29;0.90;;;0.30;;
76417;SDS011;65250;47.602;19.002;2023-02-19T17:28:58;1.95;;;0.50;;
76417;SDS011;65250;47.602;19.002;2023-02-19T17:31:27;1.77;;;0.60;;
76417;SDS011;65250;47.602;19.002;2023-02-19T17:33:54;2.00;;;0.90;;
76417;SDS011;65250;47.602;19.002;2023-02-19T17:36:24;1.23;;;0.47;;
76417;SDS011;65250;47.602;19.002;2023-02-19T17:38:57;2.27;;;0.47;;
76417;SDS011;65250;47.602;19.002;2023-02-19T17:41:25;0.55;;;0.30;;
76417;SDS011;65250;47.602;19.002;2023-02-19T17:43:53;0.50;;;0.30;;
76417;SDS011;65250;47.602;19.002;2023-02-19T17:46:22;0.70;;;0.30;;
76417;SDS011;65250;47.602;19.002;2023-02-19T17:48:51;1.10;;;0.35;;
76417;SDS011;65250;47.602;19.002;2023-02-19T17:51:20;0.57;;;0.30;;
76417;SDS011;65250;47.602;19.002;2023-02-19T17:53:48;0.63;;;0.20;;
76417;SDS011;65250;47.602;19.002;2023-02-19T17:56:16;1.58;;;0.35;;